Time;durP1;ratioP1;P1;durP2;ratioP2;P2;SDS_P1;SDS_P2;PMS_P1;PMS_P2;Temp;Humidity;BMP_temperature;BMP_pressure;BME280_temperature;BME280_humidity;BME280_pressure;Samples;Min_cycle;Max_cycle;Signal;HPM_P1;HPM_P2
2022/04/05 00:00:54;;;;;;;10.20;9.13;;;7.50;99.90;;;;;;7245862;32;20119;-60
2022/04/05 00:04:55;;;;;;;10.88;9.30;;;7.50;99.90;;;;;;7246537;32;20121;-60
2022/04/05 00:08:57;;;;;;;10.70;9.43;;;7.50;99.90;;;;;;7246654;32;20218;-59
2022/04/05 00:12:59;;;;;;;10.88;9.48;;;7.50;99.90;;;;;;7248868;32;20222;-57
2022/04/05 00:17:02;;;;;;;10.52;9.45;;;7.60;99.90;;;;;;7245069;32;20219;-57
2022/04/05 00:21:05;;;;;;;10.52;9.32;;;7.60;99.90;;;;;;7245886;32;20854;-58
2022/04/05 00:25:07;;;;;;;10.38;9.27;;;7.60;99.90;;;;;;7246468;32;20137;-58
2022/04/05 00:29:09;;;;;;;9.73;8.73;;;7.70;99.90;;;;;;7246125;32;20108;-59
2022/04/05 00:33:10;;;;;;;10.20;8.60;;;7.70;99.90;;;;;;7245596;32;20119;-59
2022/04/05 00:37:12;;;;;;;10.02;9.02;;;7.70;99.90;;;;;;7244980;32;20104;-60
2022/04/05 00:41:14;;;;;;;9.90;8.90;;;7.80;99.90;;;;;;7246485;32;20105;-58
2022/04/05 00:45:16;;;;;;;9.80;8.77;;;7.80;99.90;;;;;;7244279;32;20180;-61
2022/04/05 00:49:30;;;;;;;9.73;8.43;;;7.80;99.90;;;;;;7246618;32;20172;-59
2022/04/05 00:53:33;;;;;;;9.50;8.50;;;7.80;99.90;;;;;;7247709;32;20147;-58
2022/04/05 00:57:35;;;;;;;9.88;8.63;;;7.90;99.90;;;;;;7244966;32;20394;-59
2022/04/05 01:01:38;;;;;;;10.25;8.63;;;7.90;99.90;;;;;;7246912;32;20187;-60
2022/04/05 01:05:40;;;;;;;9.63;8.52;;;7.90;99.90;;;;;;7245338;32;21026;-59
2022/04/05 01:09:42;;;;;;;9.82;8.73;;;7.90;99.90;;;;;;7247472;32;20131;-58
2022/04/05 01:13:43;;;;;;;8.70;7.43;;;8.00;99.90;;;;;;7246571;32;20097;-59
2022/04/05 01:17:45;;;;;;;8.93;8.02;;;7.90;99.90;;;;;;7245693;32;20930;-59
2022/04/05 01:21:47;;;;;;;8.63;7.68;;;8.00;99.90;;;;;;7244294;32;20151;-59
2022/04/05 01:25:49;;;;;;;8.57;6.70;;;8.00;99.90;;;;;;7231691;32;20113;-58
2022/04/05 01:29:51;;;;;;;7.50;6.70;;;8.10;99.90;;;;;;7245825;32;20100;-59
2022/04/05 01:33:53;;;;;;;7.90;7.10;;;8.10;99.90;;;;;;7242811;32;20665;-59
2022/04/05 01:37:54;;;;;;;8.57;6.97;;;8.10;99.90;;;;;;7241597;32;20139;-59
2022/04/05 01:42:01;;;;;;;8.57;7.55;;;8.10;99.90;;;;;;7244934;32;20196;-60
2022/04/05 01:46:03;;;;;;;7.80;7.00;;;8.10;99.90;;;;;;7243751;32;20227;-59
2022/04/05 01:50:05;;;;;;;9.23;7.85;;;8.20;99.90;;;;;;7244723;32;20243;-59
2022/04/05 01:54:09;;;;;;;8.80;7.05;;;8.20;99.90;;;;;;7244397;32;20262;-60
2022/04/05 01:58:10;;;;;;;9.27;8.15;;;8.30;99.90;;;;;;7244652;32;20108;-59
2022/04/05 02:02:12;;;;;;;10.38;8.32;;;8.30;99.90;;;;;;7239771;32;20119;-59
2022/04/05 02:06:14;;;;;;;9.48;8.45;;;8.30;99.90;;;;;;7243912;32;20697;-60
2022/04/05 02:10:15;;;;;;;9.50;8.07;;;8.40;99.90;;;;;;7245726;32;20485;-60
2022/04/05 02:14:17;;;;;;;9.18;7.62;;;8.40;99.90;;;;;;7242881;32;20127;-59
2022/04/05 02:18:19;;;;;;;8.55;7.65;;;8.40;99.90;;;;;;7236251;32;20271;-60
2022/04/05 02:22:20;;;;;;;8.05;6.75;;;8.50;99.90;;;;;;7237557;32;20167;-60
2022/04/05 02:26:22;;;;;;;8.63;7.37;;;8.50;99.90;;;;;;7243124;32;20125;-60
2022/04/05 02:30:24;;;;;;;9.57;7.60;;;8.40;99.90;;;;;;7243211;32;20104;-60
2022/04/05 02:34:25;;;;;;;8.65;7.15;;;8.40;99.90;;;;;;7246395;32;20505;-60
2022/04/05 02:38:27;;;;;;;8.25;7.35;;;8.50;99.90;;;;;;7237883;32;20239;-60
2022/04/05 02:42:28;;;;;;;7.55;6.55;;;8.50;99.90;;;;;;7243565;32;20123;-60
2022/04/05 02:46:30;;;;;;;8.45;6.97;;;8.50;99.90;;;;;;7240874;32;20170;-59
2022/04/05 02:50:32;;;;;;;9.60;7.43;;;8.50;99.90;;;;;;7238548;32;20343;-59
2022/04/05 02:54:34;;;;;;;7.85;6.55;;;8.50;99.90;;;;;;7234100;32;20146;-60
2022/04/05 02:58:36;;;;;;;8.77;6.75;;;8.50;99.90;;;;;;7243347;32;20126;-60
2022/04/05 03:02:39;;;;;;;7.35;6.55;;;8.50;99.90;;;;;;7240677;32;20198;-59
2022/04/05 03:06:41;;;;;;;7.80;6.37;;;8.50;99.90;;;;;;7243632;32;20108;-59
2022/04/05 03:10:43;;;;;;;9.23;7.87;;;8.60;99.90;;;;;;7242092;32;20513;-59
2022/04/05 03:14:45;;;;;;;9.20;7.18;;;8.50;99.90;;;;;;7244930;32;20100;-58
2022/04/05 03:18:47;;;;;;;8.73;7.28;;;8.50;99.90;;;;;;7241668;32;20262;-59
2022/04/05 03:22:49;;;;;;;9.50;8.32;;;8.50;99.90;;;;;;7242563;32;20131;-60
2022/04/05 03:26:50;;;;;;;10.05;8.25;;;8.60;99.90;;;;;;7242019;32;20875;-60
2022/04/05 03:30:58;;;;;;;10.35;8.88;;;8.60;99.90;;;;;;7242577;32;20278;-58
2022/04/05 03:35:00;;;;;;;10.65;9.10;;;8.60;99.90;;;;;;7246756;32;20119;-60
2022/04/05 03:39:01;;;;;;;11.82;10.02;;;8.60;99.90;;;;;;7245247;32;20206;-60
2022/04/05 03:43:04;;;;;;;11.43;9.90;;;8.60;99.90;;;;;;7247996;32;20208;-59
2022/04/05 03:47:05;;;;;;;12.25;9.73;;;8.80;99.90;;;;;;7246027;32;20097;-61
2022/04/05 03:51:09;;;;;;;12.85;10.30;;;8.80;99.90;;;;;;7245726;32;20113;-59
2022/04/05 03:55:11;;;;;;;12.73;9.85;;;8.80;99.90;;;;;;7244838;32;20104;-60
2022/04/05 03:59:13;;;;;;;15.15;10.88;;;8.70;99.90;;;;;;7243614;32;20433;-61
2022/04/05 04:03:15;;;;;;;12.80;10.25;;;8.70;99.90;;;;;;7245138;32;20105;-60
2022/04/05 04:07:16;;;;;;;13.77;10.90;;;8.70;99.90;;;;;;7247751;32;20512;-61
2022/04/05 04:11:18;;;;;;;19.17;12.68;;;8.70;99.90;;;;;;7244482;32;20207;-61
2022/04/05 04:15:19;;;;;;;19.15;13.95;;;8.70;99.90;;;;;;7244790;32;20124;-60
2022/04/05 04:19:21;;;;;;;20.95;15.63;;;8.70;99.90;;;;;;7242542;32;20218;-60
2022/04/05 04:23:23;;;;;;;22.52;16.80;;;8.70;99.90;;;;;;7239932;32;20123;-60
2022/04/05 04:27:25;;;;;;;22.50;16.48;;;8.60;99.90;;;;;;7240398;32;20108;-57
2022/04/05 04:31:27;;;;;;;23.05;16.00;;;8.50;99.90;;;;;;7244438;32;20119;-59
2022/04/05 04:35:29;;;;;;;27.27;16.30;;;8.50;99.90;;;;;;7244314;32;20288;-58
2022/04/05 04:39:32;;;;;;;22.33;15.57;;;8.50;99.90;;;;;;7241955;32;20100;-59
2022/04/05 04:43:34;;;;;;;25.85;15.75;;;8.40;99.90;;;;;;7243064;32;20128;-59
2022/04/05 04:47:36;;;;;;;21.85;15.88;;;8.40;99.90;;;;;;7244242;32;20425;-59
2022/04/05 04:51:37;;;;;;;28.98;16.42;;;8.30;99.90;;;;;;7238541;32;20123;-60
2022/04/05 04:55:39;;;;;;;25.30;16.17;;;8.30;99.90;;;;;;7248235;32;20228;-59
2022/04/05 05:00:02;;;;;;;25.98;16.60;;;8.40;99.90;;;;;;7246246;32;20239;-60
2022/04/05 05:04:04;;;;;;;21.25;16.25;;;8.50;99.90;;;;;;7244582;32;20104;-60
2022/04/05 05:08:06;;;;;;;25.27;16.87;;;8.50;99.90;;;;;;7245863;32;20162;-62
2022/04/05 05:12:10;;;;;;;23.52;16.55;;;8.50;99.90;;;;;;7244207;32;20338;-60
2022/04/05 05:16:11;;;;;;;26.23;17.87;;;8.40;99.90;;;;;;7244946;32;20181;-59
2022/04/05 05:20:15;;;;;;;18.95;14.75;;;8.50;99.90;;;;;;7245779;32;20148;-60
2022/04/05 05:24:16;;;;;;;18.70;14.57;;;8.70;99.90;;;;;;7247104;32;20516;-61
2022/04/05 05:28:18;;;;;;;17.37;14.07;;;8.80;99.90;;;;;;7246178;32;20195;-60
2022/04/05 05:32:20;;;;;;;16.60;13.98;;;8.90;99.90;;;;;;7244860;32;20261;-60
2022/04/05 05:36:22;;;;;;;18.23;14.43;;;9.10;99.90;;;;;;7243606;32;20153;-59
2022/04/05 05:40:24;;;;;;;18.08;13.93;;;9.10;99.90;;;;;;7243109;32;20135;-60
2022/04/05 05:44:25;;;;;;;15.55;12.48;;;9.10;99.90;;;;;;7243851;32;20119;-62
2022/04/05 05:48:27;;;;;;;16.73;12.77;;;9.20;99.90;;;;;;7243833;32;20128;-59
2022/04/05 05:52:28;;;;;;;17.52;12.32;;;9.30;99.90;;;;;;7249055;32;20654;-60
2022/04/05 05:56:30;;;;;;;15.23;12.30;;;9.20;99.90;;;;;;7237041;32;20140;-59
2022/04/05 06:00:32;;;;;;;17.40;13.20;;;9.20;99.90;;;;;;7242671;32;20108;-59
2022/04/05 06:04:33;;;;;;;14.55;11.05;;;9.20;99.90;;;;;;7246483;32;20143;-59
2022/04/05 06:08:35;;;;;;;16.87;12.50;;;9.30;99.90;;;;;;7246221;32;20113;-60
2022/04/05 06:12:38;;;;;;;15.95;12.23;;;9.30;99.90;;;;;;7243709;32;20216;-59
2022/04/05 06:16:40;;;;;;;16.05;11.02;;;9.30;99.90;;;;;;7237503;32;20281;-59
2022/04/05 06:20:42;;;;;;;15.48;11.93;;;9.30;99.90;;;;;;7238540;32;20124;-59
2022/04/05 06:24:44;;;;;;;15.45;12.02;;;9.40;99.90;;;;;;7242819;32;20108;-59
2022/04/05 06:28:46;;;;;;;13.73;11.35;;;9.30;99.90;;;;;;7243469;32;20125;-62
2022/04/05 06:32:48;;;;;;;17.05;11.85;;;9.40;99.90;;;;;;7243433;32;20187;-60
2022/04/05 06:36:49;;;;;;;15.18;10.95;;;9.40;99.90;;;;;;7244157;32;20132;-60
2022/04/05 06:40:52;;;;;;;15.95;11.63;;;9.40;99.90;;;;;;7241919;32;20147;-60
2022/04/05 06:44:54;;;;;;;16.85;12.27;;;9.50;99.90;;;;;;7246230;32;20101;-60
2022/04/05 06:48:55;;;;;;;15.02;11.40;;;9.50;99.90;;;;;;7246872;32;20226;-60
2022/04/05 06:52:59;;;;;;;14.73;10.45;;;9.40;99.90;;;;;;7247524;32;20556;-60
2022/04/05 06:57:01;;;;;;;14.80;10.20;;;9.50;99.90;;;;;;7243924;32;20189;-61
2022/04/05 07:01:03;;;;;;;14.13;10.52;;;9.50;99.90;;;;;;7243817;32;20183;-59
2022/04/05 07:05:05;;;;;;;12.80;10.57;;;9.50;99.90;;;;;;7243431;32;20136;-61
2022/04/05 07:09:07;;;;;;;16.02;10.52;;;9.50;99.90;;;;;;7247414;32;20394;-62
2022/04/05 07:13:09;;;;;;;12.93;10.05;;;9.50;99.90;;;;;;7255667;32;20214;-59
2022/04/05 07:17:11;;;;;;;14.48;10.30;;;9.50;99.90;;;;;;7248945;32;20450;-60
2022/04/05 07:21:12;;;;;;;10.45;8.85;;;9.50;99.90;;;;;;7247772;32;20223;-60
2022/04/05 07:25:19;;;;;;;12.25;9.52;;;9.40;99.90;;;;;;7246903;32;21226;-60
2022/04/05 07:29:21;;;;;;;12.33;9.40;;;9.50;99.90;;;;;;7244106;32;20166;-60
2022/04/05 07:33:23;;;;;;;12.35;9.30;;;9.50;99.90;;;;;;7248193;32;20592;-63
2022/04/05 07:37:26;;;;;;;11.93;9.02;;;9.50;99.90;;;;;;7254169;32;20120;-60
2022/04/05 07:41:27;;;;;;;11.77;8.45;;;9.60;99.90;;;;;;7245983;32;20104;-59
2022/04/05 07:45:30;;;;;;;10.63;8.32;;;9.60;99.90;;;;;;7244694;32;20258;-59
2022/04/05 07:49:32;;;;;;;10.82;8.10;;;9.60;99.90;;;;;;7244734;32;21012;-61
2022/04/05 07:53:34;;;;;;;8.98;7.60;;;9.70;99.90;;;;;;7242977;32;20126;-60
2022/04/05 07:57:36;;;;;;;10.25;7.30;;;9.70;99.90;;;;;;7245089;32;20561;-59
2022/04/05 08:01:38;;;;;;;10.57;8.27;;;9.70;99.90;;;;;;7244287;32;20191;-63
2022/04/05 08:05:41;;;;;;;12.48;8.10;;;9.60;99.90;;;;;;7244853;32;20170;-61
2022/04/05 08:09:42;;;;;;;10.40;8.80;;;9.60;99.90;;;;;;7242834;32;20414;-60
2022/04/05 08:13:44;;;;;;;12.23;9.25;;;9.60;99.90;;;;;;7246119;32;20108;-61
2022/04/05 08:17:46;;;;;;;11.85;9.68;;;9.60;99.90;;;;;;7243175;32;20234;-61
2022/04/05 08:21:48;;;;;;;12.40;10.95;;;9.80;99.90;;;;;;7244676;32;20226;-61
2022/04/05 08:25:50;;;;;;;16.05;11.57;;;9.80;99.90;;;;;;7245310;32;20109;-61
2022/04/05 08:29:52;;;;;;;14.95;11.48;;;9.90;99.90;;;;;;7245156;32;20109;-61
2022/04/05 08:33:54;;;;;;;14.93;11.80;;;9.90;99.90;;;;;;7243857;32;20246;-60
2022/04/05 08:37:56;;;;;;;17.48;12.95;;;10.00;99.90;;;;;;7243439;32;20492;-61
2022/04/05 08:41:58;;;;;;;12.82;11.15;;;10.00;99.90;;;;;;7241529;32;20127;-61
2022/04/05 08:46:02;;;;;;;14.10;12.52;;;10.10;99.90;;;;;;7244533;32;20217;-60
2022/04/05 08:50:04;;;;;;;18.25;12.82;;;9.90;99.90;;;;;;7243089;32;20524;-60
2022/04/05 08:54:05;;;;;;;15.60;13.88;;;10.00;99.90;;;;;;7240871;32;20113;-61
2022/04/05 08:58:07;;;;;;;18.75;13.60;;;10.00;99.90;;;;;;7242941;32;20128;-60
2022/04/05 09:02:09;;;;;;;16.00;12.82;;;10.00;99.90;;;;;;7242027;32;20195;-60
2022/04/05 09:06:33;;;;;;;15.27;12.77;;;10.10;99.90;;;;;;7241756;32;20101;-61
2022/04/05 09:10:35;;;;;;;14.35;11.40;;;10.10;99.90;;;;;;7241836;32;20211;-61
2022/04/05 09:14:41;;;;;;;13.02;10.77;;;10.10;99.90;;;;;;7244772;32;20753;-61
2022/04/05 09:18:44;;;;;;;14.10;11.23;;;10.00;99.90;;;;;;7241297;32;20108;-62
2022/04/05 09:22:46;;;;;;;14.00;10.55;;;10.00;99.90;;;;;;7246299;32;20154;-57
2022/04/05 09:26:48;;;;;;;13.95;11.25;;;10.10;99.90;;;;;;7247232;32;20097;-60
2022/04/05 09:30:51;;;;;;;19.08;12.18;;;10.00;99.90;;;;;;7241600;32;20104;-61
2022/04/05 09:34:54;;;;;;;14.20;10.68;;;10.00;99.90;;;;;;7242433;32;20100;-60
2022/04/05 09:39:29;;;;;;;13.93;10.95;;;10.10;99.90;;;;;;7246252;32;20125;-60
2022/04/05 09:43:31;;;;;;;15.10;10.43;;;10.10;99.90;;;;;;7246929;32;20116;-60
2022/04/05 09:47:33;;;;;;;14.77;10.95;;;10.10;99.90;;;;;;7244612;32;20115;-59
2022/04/05 09:51:43;;;;;;;14.77;11.40;;;10.10;99.90;;;;;;7243520;32;20324;-60
2022/04/05 09:55:45;;;;;;;12.63;11.07;;;10.00;99.90;;;;;;7249315;32;20805;-60
2022/04/05 09:59:47;;;;;;;16.42;11.18;;;10.10;99.90;;;;;;7247642;32;20414;-60
2022/04/05 10:04:01;;;;;;;15.68;11.10;;;10.20;99.90;;;;;;7250147;32;20108;-61
2022/04/05 10:08:04;;;;;;;14.02;11.38;;;10.30;99.90;;;;;;7248728;32;20247;-62
2022/04/05 10:12:06;;;;;;;15.38;9.98;;;10.40;99.90;;;;;;7243954;32;20128;-60
2022/04/05 10:16:11;;;;;;;11.52;9.52;;;10.40;99.90;;;;;;7237327;32;20386;-60
2022/04/05 10:20:35;;;;;;;13.43;10.95;;;10.50;99.90;;;;;;7238511;32;20196;-60
2022/04/05 10:24:37;;;;;;;16.00;10.40;;;10.80;99.90;;;;;;7236897;32;20096;-61
2022/04/05 10:28:41;;;;;;;10.40;8.77;;;11.10;99.90;;;;;;7238388;32;20895;-61
2022/04/05 10:32:56;;;;;;;13.62;8.65;;;11.20;99.90;;;;;;7237701;32;20136;-60
2022/04/05 10:37:16;;;;;;;9.27;7.60;;;11.20;99.90;;;;;;7239037;32;20205;-60
2022/04/05 10:41:20;;;;;;;10.88;7.80;;;11.40;99.90;;;;;;7237482;32;20362;-59
2022/04/05 10:45:28;;;;;;;11.18;9.82;;;11.50;99.90;;;;;;7239690;32;20143;-61
2022/04/05 10:49:36;;;;;;;10.57;9.27;;;11.60;99.90;;;;;;7239270;32;20757;-61
2022/04/05 10:54:17;;;;;;;10.75;9.65;;;11.80;99.90;;;;;;7238344;32;20434;-61
2022/04/05 10:58:10;;;;;;;10.33;9.23;;;11.70;99.90;;;;;;7245088;32;20257;-60
2022/04/05 11:02:44;;;;;;;8.02;7.15;;;11.80;99.90;;;;;;7240647;32;20200;-62
2022/04/05 11:06:59;;;;;;;11.05;9.07;;;11.70;99.90;;;;;;7239586;32;20101;-61
2022/04/05 11:11:04;;;;;;;10.63;7.65;;;11.80;99.90;;;;;;7240581;32;20180;-61
2022/04/05 11:15:07;;;;;;;11.10;8.25;;;11.90;99.90;;;;;;7240120;32;20109;-60
2022/04/05 11:19:10;;;;;;;7.18;6.20;;;12.00;99.90;;;;;;7225819;32;20142;-61
2022/04/05 11:23:14;;;;;;;7.95;5.62;;;12.00;99.90;;;;;;7240309;32;20364;-61
2022/04/05 11:27:33;;;;;;;8.73;5.70;;;12.20;99.90;;;;;;7238675;32;20200;-61
2022/04/05 11:31:41;;;;;;;5.93;5.35;;;12.20;99.90;;;;;;7239663;32;20139;-61
2022/04/05 11:35:47;;;;;;;4.80;3.92;;;12.20;99.90;;;;;;7237022;32;20104;-62
2022/04/05 11:39:49;;;;;;;6.07;4.07;;;12.40;99.90;;;;;;7242430;32;20104;-60
2022/04/05 11:43:56;;;;;;;4.87;3.83;;;12.20;99.90;;;;;;7238855;32;20426;-60
2022/04/05 11:47:59;;;;;;;4.57;4.15;;;12.10;99.90;;;;;;7237276;32;20104;-61
2022/04/05 11:52:01;;;;;;;5.60;3.83;;;12.10;99.90;;;;;;7234095;32;20135;-58
2022/04/05 11:56:10;;;;;;;4.35;3.95;;;11.90;99.90;;;;;;7232559;32;20127;-57
2022/04/05 12:00:12;;;;;;;5.22;4.65;;;11.80;99.90;;;;;;7242099;32;20215;-58
2022/04/05 12:04:21;;;;;;;6.90;5.65;;;11.70;99.90;;;;;;7246758;32;20602;-57
2022/04/05 12:08:23;;;;;;;6.93;6.22;;;11.60;99.90;;;;;;7246134;32;20634;-60
2022/04/05 12:12:25;;;;;;;8.98;6.82;;;11.30;99.90;;;;;;7253144;32;20511;-61
2022/04/05 12:16:29;;;;;;;11.23;9.25;;;11.20;99.90;;;;;;7243406;32;20171;-60
2022/04/05 12:20:31;;;;;;;8.98;7.75;;;11.20;99.90;;;;;;7243592;32;20779;-59
2022/04/05 12:24:35;;;;;;;8.32;7.53;;;11.20;99.90;;;;;;7246488;32;20222;-59
2022/04/05 12:28:39;;;;;;;11.68;8.60;;;11.20;99.90;;;;;;7244020;32;20105;-60
2022/04/05 12:32:41;;;;;;;9.93;8.93;;;11.20;99.90;;;;;;7241541;32;20610;-61
2022/04/05 12:36:53;;;;;;;12.27;9.38;;;11.20;99.90;;;;;;7248450;32;20155;-60
2022/04/05 12:40:56;;;;;;;12.68;10.52;;;11.30;99.90;;;;;;7244704;32;20146;-61
2022/04/05 12:44:59;;;;;;;11.55;10.35;;;11.30;99.90;;;;;;7244723;32;20127;-60
2022/04/05 12:49:17;;;;;;;12.77;9.07;;;11.50;99.90;;;;;;7239958;32;20453;-63
2022/04/05 12:53:38;;;;;;;11.27;8.95;;;11.40;99.90;;;;;;7245294;32;20176;-60
2022/04/05 12:57:51;;;;;;;10.90;8.35;;;11.40;99.90;;;;;;7220421;32;20151;-61
2022/04/05 13:01:55;;;;;;;9.52;8.60;;;11.40;99.90;;;;;;7214063;32;20603;-62
2022/04/05 13:10:18;;;;;;;10.75;8.35;;;11.30;99.90;;;;;;7242800;32;20250;-62
2022/04/05 13:14:20;;;;;;;10.70;8.48;;;11.30;99.90;;;;;;7248513;32;20222;-60
2022/04/05 13:18:34;;;;;;;11.32;7.90;;;11.30;99.90;;;;;;7240831;32;20211;-60
2022/04/05 13:22:36;;;;;;;11.20;7.85;;;11.50;99.90;;;;;;7241987;32;20624;-61
2022/04/05 13:26:46;;;;;;;7.78;7.00;;;11.70;99.90;;;;;;7242984;32;20702;-60
2022/04/05 13:30:48;;;;;;;8.48;6.90;;;11.80;99.90;;;;;;7240479;32;20105;-62
2022/04/05 13:34:49;;;;;;;7.75;6.70;;;12.10;99.90;;;;;;7238988;32;20193;-60
2022/04/05 13:38:51;;;;;;;6.97;6.28;;;12.10;99.90;;;;;;7238245;32;20795;-61
2022/04/05 13:42:54;;;;;;;7.75;6.60;;;12.00;99.90;;;;;;7238921;32;20115;-62
2022/04/05 13:46:56;;;;;;;8.75;6.30;;;11.80;99.90;;;;;;7240148;32;20104;-59
2022/04/05 13:50:57;;;;;;;10.10;9.10;;;11.60;99.90;;;;;;7240716;32;20120;-60
2022/04/05 13:54:59;;;;;;;10.77;9.68;;;11.60;99.90;;;;;;7241517;32;20174;-62
2022/04/05 13:59:02;;;;;;;10.80;9.52;;;11.50;99.90;;;;;;7236386;32;20108;-62
2022/04/05 14:03:04;;;;;;;11.82;10.07;;;11.40;99.90;;;;;;7244045;32;20187;-60
2022/04/05 14:07:10;;;;;;;10.93;8.35;;;11.50;99.90;;;;;;7248636;32;20100;-61
2022/04/05 14:11:12;;;;;;;10.00;9.00;;;11.40;99.90;;;;;;7246215;32;20238;-61
2022/04/05 14:15:26;;;;;;;9.90;7.80;;;11.50;99.90;;;;;;7246466;32;20230;-62
2022/04/05 14:19:28;;;;;;;8.15;7.03;;;11.50;99.90;;;;;;7240699;32;20191;-60
2022/04/05 14:23:30;;;;;;;7.15;6.43;;;11.60;99.90;;;;;;7220445;32;20223;-62
2022/04/05 14:27:31;;;;;;;9.65;6.57;;;11.60;99.90;;;;;;7243632;32;20500;-61
2022/04/05 14:31:34;;;;;;;7.22;6.57;;;11.70;99.90;;;;;;7242081;32;20191;-61
2022/04/05 14:35:36;;;;;;;7.43;6.30;;;11.50;99.90;;;;;;7242023;32;20108;-65
2022/04/05 14:39:38;;;;;;;8.15;7.20;;;11.60;99.90;;;;;;7239552;32;20104;-63
2022/04/05 14:43:40;;;;;;;8.05;7.20;;;11.50;99.90;;;;;;7228706;32;20318;-61
2022/04/05 14:47:42;;;;;;;10.57;7.45;;;11.50;99.90;;;;;;7242710;32;20223;-60
2022/04/05 14:51:44;;;;;;;9.95;6.70;;;11.50;99.90;;;;;;7228900;32;20100;-60
2022/04/05 14:55:46;;;;;;;7.15;6.45;;;11.40;99.90;;;;;;7246350;32;20509;-62
2022/04/05 14:59:47;;;;;;;7.18;6.00;;;11.40;99.90;;;;;;7242402;32;20122;-61
2022/04/05 15:03:49;;;;;;;6.07;5.47;;;11.30;99.90;;;;;;7241949;32;20141;-60
2022/04/05 15:07:51;;;;;;;7.70;6.57;;;11.30;99.90;;;;;;7247341;32;20127;-62
2022/04/05 15:11:54;;;;;;;7.37;6.55;;;11.30;99.90;;;;;;7239499;32;20112;-59
2022/04/05 15:15:56;;;;;;;7.57;6.70;;;11.20;99.90;;;;;;7242108;32;20104;-61
2022/04/05 15:19:58;;;;;;;8.50;7.60;;;11.30;99.90;;;;;;7240854;32;20165;-60
2022/04/05 15:24:00;;;;;;;8.02;6.50;;;11.20;99.90;;;;;;7239435;32;20191;-60
2022/04/05 15:28:02;;;;;;;11.73;7.18;;;11.20;99.90;;;;;;7243449;32;20709;-60
2022/04/05 15:32:10;;;;;;;9.15;8.25;;;11.20;99.90;;;;;;7240371;32;20187;-62
2022/04/05 15:36:12;;;;;;;9.93;8.88;;;11.10;99.90;;;;;;7241258;32;20142;-60
2022/04/05 15:40:14;;;;;;;12.43;10.18;;;11.00;99.90;;;;;;7245847;32;20438;-59
2022/04/05 15:44:22;;;;;;;11.80;10.60;;;11.00;99.90;;;;;;7240453;32;20600;-61
2022/04/05 15:48:23;;;;;;;11.85;10.52;;;11.00;99.90;;;;;;7240195;32;20112;-60
2022/04/05 15:52:26;;;;;;;11.77;10.13;;;11.00;99.90;;;;;;7246436;32;20155;-60
2022/04/05 15:56:27;;;;;;;10.23;8.55;;;10.90;99.90;;;;;;7246936;32;20433;-61
2022/04/05 16:00:29;;;;;;;9.13;8.05;;;10.90;99.90;;;;;;7247221;32;20123;-60
2022/04/05 16:04:31;;;;;;;8.65;7.57;;;10.90;99.90;;;;;;7246283;32;20266;-61
2022/04/05 16:08:33;;;;;;;7.57;6.50;;;10.90;99.90;;;;;;7244208;32;20210;-61
2022/04/05 16:12:35;;;;;;;7.78;6.80;;;10.90;99.90;;;;;;7246564;32;20100;-60
2022/04/05 16:16:37;;;;;;;9.52;7.87;;;10.90;99.90;;;;;;7245644;32;20517;-61
2022/04/05 16:20:38;;;;;;;8.10;6.90;;;11.00;99.90;;;;;;7244726;32;20216;-61
2022/04/05 16:24:41;;;;;;;6.45;5.50;;;11.00;99.90;;;;;;7247522;32;20932;-60
2022/04/05 16:28:44;;;;;;;6.15;5.30;;;10.90;99.90;;;;;;7246711;32;20104;-60
2022/04/05 16:32:45;;;;;;;6.90;5.07;;;11.00;99.90;;;;;;7240915;32;20143;-60
2022/04/05 16:36:47;;;;;;;6.18;5.30;;;10.90;99.90;;;;;;7241893;32;20100;-61
2022/04/05 16:40:49;;;;;;;8.07;5.40;;;10.90;99.90;;;;;;7247006;32;20257;-60
2022/04/05 16:44:51;;;;;;;9.38;5.85;;;11.00;99.90;;;;;;7244996;32;20230;-60
2022/04/05 16:48:53;;;;;;;8.32;6.32;;;11.00;99.90;;;;;;7236177;32;20117;-60
2022/04/05 16:52:55;;;;;;;7.20;6.30;;;10.90;99.90;;;;;;7242625;32;20101;-60
2022/04/05 16:56:56;;;;;;;7.47;6.78;;;11.00;99.90;;;;;;7245469;32;20228;-61
2022/04/05 17:00:58;;;;;;;7.78;6.97;;;10.90;99.90;;;;;;7241551;32;20134;-62
2022/04/05 17:05:01;;;;;;;8.32;7.05;;;10.90;99.90;;;;;;7239275;32;20128;-61
2022/04/05 17:09:04;;;;;;;9.45;7.87;;;10.90;99.90;;;;;;7243800;32;20498;-60
2022/04/05 17:13:07;;;;;;;8.15;6.93;;;10.90;99.90;;;;;;7240582;32;20127;-61
2022/04/05 17:17:08;;;;;;;8.07;7.30;;;10.80;99.90;;;;;;7248894;32;20108;-61
2022/04/05 17:21:10;;;;;;;8.82;7.95;;;10.80;99.90;;;;;;7250555;32;20195;-61
2022/04/05 17:25:12;;;;;;;8.57;7.70;;;10.80;99.90;;;;;;7249906;32;20130;-61
2022/04/05 17:29:14;;;;;;;9.50;8.60;;;10.80;99.90;;;;;;7245843;32;20100;-61
2022/04/05 17:33:16;;;;;;;10.45;9.45;;;10.80;99.90;;;;;;7252681;32;20114;-63
2022/04/05 17:37:18;;;;;;;11.70;8.73;;;10.70;99.90;;;;;;7242849;32;20104;-60
2022/04/05 17:41:20;;;;;;;10.00;8.95;;;10.80;99.90;;;;;;7225752;32;20119;-60
2022/04/05 17:45:22;;;;;;;9.85;8.85;;;10.80;99.90;;;;;;7236892;32;20489;-60
2022/04/05 17:49:23;;;;;;;11.65;9.38;;;10.80;99.90;;;;;;7241377;32;20123;-61
2022/04/05 17:53:26;;;;;;;10.98;9.60;;;10.80;99.90;;;;;;7242194;32;20267;-59
2022/04/05 17:57:48;;;;;;;14.32;9.30;;;10.80;99.90;;;;;;7250030;32;20170;-62
2022/04/05 18:01:49;;;;;;;10.23;8.88;;;10.80;99.90;;;;;;7246243;32;20123;-60
2022/04/05 18:05:51;;;;;;;10.93;9.60;;;10.80;99.90;;;;;;7241023;32;20191;-62
2022/04/05 18:09:53;;;;;;;10.18;9.18;;;10.70;99.90;;;;;;7252115;32;20184;-61
2022/04/05 18:13:56;;;;;;;11.82;9.52;;;10.70;99.90;;;;;;7246075;32;20490;-60
2022/04/05 18:17:58;;;;;;;11.12;9.43;;;10.80;99.90;;;;;;7244738;32;20179;-61
2022/04/05 18:21:59;;;;;;;11.40;10.20;;;10.80;99.90;;;;;;7237437;32;20187;-61
2022/04/05 18:26:01;;;;;;;12.80;9.38;;;10.80;99.90;;;;;;7239114;32;20720;-60
2022/04/05 18:30:05;;;;;;;12.88;9.60;;;10.80;99.90;;;;;;7236677;32;20128;-61
2022/04/05 18:34:13;;;;;;;11.50;9.68;;;10.70;99.90;;;;;;7237954;32;20162;-63
2022/04/05 18:38:17;;;;;;;11.80;10.27;;;10.70;99.90;;;;;;7243989;32;20151;-60
2022/04/05 18:42:18;;;;;;;12.37;10.32;;;10.60;99.90;;;;;;7250215;32;20100;-60
2022/04/05 18:46:20;;;;;;;12.52;11.20;;;10.50;99.90;;;;;;7252118;32;20128;-60
2022/04/05 18:50:22;;;;;;;15.40;12.35;;;10.50;99.90;;;;;;7246597;32;20250;-61
2022/04/05 18:54:24;;;;;;;25.30;19.02;;;10.40;99.90;;;;;;7250282;32;21005;-62
2022/04/05 18:58:26;;;;;;;20.00;14.68;;;10.40;99.90;;;;;;7244936;32;20105;-62
2022/04/05 19:02:27;;;;;;;17.05;12.93;;;10.30;99.90;;;;;;7246615;32;20434;-61
2022/04/05 19:06:29;;;;;;;18.60;14.13;;;10.30;99.90;;;;;;7240563;32;20093;-61
2022/04/05 19:10:32;;;;;;;17.67;14.10;;;10.20;99.90;;;;;;7246324;32;20195;-62
2022/04/05 19:14:34;;;;;;;17.73;14.52;;;10.10;99.90;;;;;;7250086;32;20124;-59
2022/04/05 19:18:36;;;;;;;20.73;15.70;;;10.20;99.90;;;;;;7244477;32;20128;-62
2022/04/05 19:22:38;;;;;;;18.27;14.35;;;10.10;99.90;;;;;;7247844;32;20119;-61
2022/04/05 19:26:40;;;;;;;17.92;13.52;;;10.10;99.90;;;;;;7247013;32;20127;-60
2022/04/05 19:30:42;;;;;;;20.62;15.98;;;10.10;99.90;;;;;;7248440;32;20204;-61
2022/04/05 19:34:44;;;;;;;20.60;15.68;;;10.00;99.90;;;;;;7246872;32;20157;-61
2022/04/05 19:38:46;;;;;;;19.50;15.80;;;10.00;99.90;;;;;;7245843;32;20132;-62
2022/04/05 19:42:48;;;;;;;19.48;15.68;;;10.00;99.90;;;;;;7247118;32;20163;-61
2022/04/05 19:46:50;;;;;;;17.05;13.68;;;9.90;99.90;;;;;;7246317;32;20097;-62
2022/04/05 19:50:52;;;;;;;17.45;13.20;;;9.90;99.90;;;;;;7244935;32;20273;-63
2022/04/05 19:54:53;;;;;;;15.95;12.57;;;9.90;99.90;;;;;;7248882;32;20146;-60
2022/04/05 19:59:00;;;;;;;18.83;13.65;;;9.90;99.90;;;;;;7246983;32;20163;-60
2022/04/05 20:03:01;;;;;;;15.00;12.88;;;9.90;99.90;;;;;;7245410;32;20326;-62
2022/04/05 20:07:04;;;;;;;17.83;12.93;;;9.80;99.90;;;;;;7247172;32;20131;-62
2022/04/05 20:11:05;;;;;;;16.40;11.43;;;9.70;99.90;;;;;;7245430;32;20215;-64
2022/04/05 20:15:10;;;;;;;19.60;11.88;;;9.60;99.90;;;;;;7247494;32;20101;-61
2022/04/05 20:19:12;;;;;;;16.27;11.68;;;9.60;99.90;;;;;;7247364;32;20594;-62
2022/04/05 20:23:14;;;;;;;17.83;11.88;;;9.50;99.90;;;;;;7247665;32;20112;-61
2022/04/05 20:27:16;;;;;;;20.10;11.63;;;9.50;99.90;;;;;;7247526;32;20327;-61
2022/04/05 20:31:17;;;;;;;20.83;12.63;;;9.60;99.90;;;;;;7241530;32;20108;-60
2022/04/05 20:35:19;;;;;;;21.70;13.85;;;9.50;99.90;;;;;;7248384;32;20158;-60
2022/04/05 20:39:22;;;;;;;21.20;13.40;;;9.50;99.90;;;;;;7248124;32;20395;-60
2022/04/05 20:43:25;;;;;;;20.12;12.85;;;9.50;99.90;;;;;;7247167;32;20126;-61
2022/04/05 20:47:27;;;;;;;19.00;13.23;;;9.40;99.90;;;;;;7243939;32;20728;-62
2022/04/05 20:51:29;;;;;;;20.23;14.20;;;9.40;99.90;;;;;;7244395;32;20100;-61
2022/04/05 20:55:31;;;;;;;21.52;14.13;;;9.40;99.90;;;;;;7242800;32;20250;-63
2022/04/05 20:59:32;;;;;;;20.65;15.52;;;9.40;99.90;;;;;;7245234;32;20524;-63